createdAt,value
2023-04-20T00:01:25.362Z,29.15
2023-04-20T00:03:53.426Z,35.00
2023-04-20T00:06:22.127Z,31.88
2023-04-20T00:08:50.959Z,35.38
2023-04-20T00:11:18.617Z,26.50
2023-04-20T00:13:46.273Z,30.55
2023-04-20T00:16:13.991Z,27.85
2023-04-20T00:18:41.680Z,27.00
2023-04-20T00:21:09.577Z,30.15
2023-04-20T00:23:37.462Z,29.88
2023-04-20T00:26:06.113Z,27.63
2023-04-20T00:28:33.816Z,30.02
2023-04-20T00:31:02.804Z,29.58
2023-04-20T00:33:31.446Z,28.55
2023-04-20T00:35:59.207Z,30.85
2023-04-20T00:38:29.393Z,29.05
2023-04-20T00:41:04.271Z,35.85
2023-04-20T00:43:32.606Z,27.58
2023-04-20T00:46:00.363Z,30.20
2023-04-20T00:48:28.058Z,32.22
2023-04-20T00:50:55.755Z,27.98
2023-04-20T00:53:23.540Z,31.05
2023-04-20T00:55:51.810Z,35.42
2023-04-20T00:58:20.161Z,37.35
2023-04-20T01:00:48.000Z,42.85
2023-04-20T01:03:18.903Z,38.22
2023-04-20T01:05:49.646Z,37.00
2023-04-20T01:08:17.809Z,35.22
2023-04-20T01:10:46.255Z,37.20
2023-04-20T01:13:15.153Z,45.80
2023-04-20T01:15:43.512Z,45.47
2023-04-20T01:18:12.220Z,40.08
2023-04-20T01:20:40.000Z,40.13
2023-04-20T01:23:07.652Z,38.42
2023-04-20T01:25:35.613Z,38.35
2023-04-20T01:28:05.044Z,44.30
2023-04-20T01:30:34.425Z,38.35
2023-04-20T01:35:34.072Z,37.78
2023-04-20T01:38:02.761Z,40.47
2023-04-20T01:40:32.202Z,50.95
2023-04-20T01:43:00.401Z,39.78
2023-04-20T01:45:28.163Z,38.53
2023-04-20T01:47:56.034Z,44.30
2023-04-20T01:50:24.266Z,47.42
2023-04-20T01:52:54.837Z,45.38
2023-04-20T01:55:23.238Z,49.60
2023-04-20T01:57:53.525Z,37.53
2023-04-20T02:00:21.864Z,47.30
2023-04-20T02:02:49.738Z,46.15
2023-04-20T02:05:17.708Z,45.75
2023-04-20T02:07:45.824Z,40.83
2023-04-20T02:10:14.663Z,46.17
2023-04-20T02:12:46.461Z,67.65
2023-04-20T02:15:14.115Z,51.97
2023-04-20T02:17:41.892Z,68.70
2023-04-20T02:20:10.968Z,60.13
2023-04-20T02:22:38.748Z,60.47
2023-04-20T02:25:06.963Z,46.35
2023-04-20T02:27:35.447Z,50.15
2023-04-20T02:30:08.856Z,53.87
2023-04-20T02:35:05.091Z,52.08
2023-04-20T02:37:33.459Z,51.65
2023-04-20T02:40:02.233Z,46.83
2023-04-20T02:42:30.973Z,44.55
2023-04-20T02:45:00.164Z,50.60
2023-04-20T02:47:28.073Z,51.10
2023-04-20T02:49:55.992Z,61.95
2023-04-20T02:52:24.664Z,50.72
2023-04-20T02:54:54.400Z,58.05
2023-04-20T02:57:23.167Z,51.50
2023-04-20T02:59:51.510Z,56.35
2023-04-20T03:02:25.675Z,48.20
2023-04-20T03:04:55.491Z,61.40
2023-04-20T03:07:23.592Z,54.47
2023-04-20T03:09:51.653Z,51.72
2023-04-20T03:12:23.855Z,58.47
2023-04-20T03:15:12.741Z,52.60
2023-04-20T03:17:54.045Z,57.45
2023-04-20T03:20:22.440Z,61.90
2023-04-20T03:22:50.081Z,54.90
2023-04-20T03:25:19.366Z,61.70
2023-04-20T03:27:56.211Z,56.65
2023-04-20T03:30:24.029Z,52.05
2023-04-20T03:32:57.874Z,58.40
2023-04-20T03:35:25.841Z,50.63
2023-04-20T03:37:53.874Z,52.15
2023-04-20T03:40:21.568Z,55.80
2023-04-20T03:42:49.275Z,54.15
2023-04-20T03:45:17.380Z,53.97
2023-04-20T03:47:45.469Z,59.25
2023-04-20T03:50:13.260Z,51.47
2023-04-20T03:52:41.369Z,49.00
2023-04-20T03:55:11.147Z,73.88
2023-04-20T03:57:44.516Z,67.72
2023-04-20T04:00:13.186Z,59.35
2023-04-20T04:03:00.071Z,69.35
2023-04-20T04:05:30.134Z,63.08
2023-04-20T04:07:57.933Z,63.75
2023-04-20T04:10:26.203Z,65.32
2023-04-20T04:12:54.496Z,58.05
2023-04-20T04:15:23.000Z,73.68
2023-04-20T04:17:58.718Z,65.65
2023-04-20T04:20:27.112Z,46.90
2023-04-20T04:22:55.448Z,51.78
2023-04-20T04:25:37.891Z,53.83
2023-04-20T04:28:06.717Z,58.80
2023-04-20T04:33:08.313Z,51.63
2023-04-20T04:35:40.768Z,45.95
2023-04-20T04:40:39.809Z,42.08
2023-04-20T04:43:10.373Z,52.53
2023-04-20T04:48:12.727Z,43.83
2023-04-20T04:50:40.735Z,40.58
2023-04-20T04:53:08.462Z,50.90
2023-04-20T04:55:36.750Z,43.97
2023-04-20T04:58:05.661Z,44.53
2023-04-20T05:00:34.059Z,50.78
2023-04-20T05:03:02.131Z,44.38
2023-04-20T05:05:30.241Z,56.78
2023-04-20T05:07:58.313Z,42.17
2023-04-20T05:10:26.360Z,52.30
2023-04-20T05:12:55.025Z,58.33
2023-04-20T05:15:23.010Z,45.28
2023-04-20T05:17:51.273Z,50.95
2023-04-20T05:20:19.481Z,44.85
2023-04-20T05:22:47.249Z,49.65
2023-04-20T05:25:15.025Z,39.90
2023-04-20T05:27:42.947Z,51.25
2023-04-20T05:30:20.726Z,39.70
2023-04-20T05:32:52.501Z,54.93
2023-04-20T05:35:21.834Z,50.22
2023-04-20T05:37:50.234Z,63.40
2023-04-20T05:40:17.997Z,44.17
2023-04-20T05:42:46.366Z,43.10
2023-04-20T05:45:15.073Z,46.15
2023-04-20T05:47:42.912Z,43.67
2023-04-20T05:50:10.928Z,58.35
2023-04-20T05:52:39.289Z,41.10
2023-04-20T05:55:07.392Z,49.45
2023-04-20T05:57:42.427Z,46.67
2023-04-20T06:00:17.710Z,48.13
2023-04-20T06:02:47.568Z,59.90
2023-04-20T06:05:16.035Z,37.47
2023-04-20T06:07:44.182Z,46.95
2023-04-20T06:10:12.445Z,53.97
2023-04-20T06:12:41.933Z,56.63
2023-04-20T06:15:11.196Z,47.50
2023-04-20T06:17:41.245Z,36.53
2023-04-20T06:20:10.301Z,52.63
2023-04-20T06:22:44.435Z,45.75
2023-04-20T06:25:13.003Z,49.35
2023-04-20T06:27:41.917Z,57.75
2023-04-20T06:30:10.276Z,52.85
2023-04-20T06:32:39.895Z,46.15
2023-04-20T06:35:09.044Z,55.05
2023-04-20T06:37:37.004Z,47.88
2023-04-20T06:40:08.795Z,55.58
2023-04-20T06:42:37.587Z,48.10
2023-04-20T06:45:06.713Z,46.08
2023-04-20T06:47:37.454Z,50.65
2023-04-20T06:50:10.438Z,50.50
2023-04-20T06:52:39.703Z,38.33
2023-04-20T06:55:10.318Z,53.70
2023-04-20T07:08:53.168Z,47.65
2023-04-20T07:11:21.152Z,53.88
2023-04-20T07:13:48.922Z,49.95
2023-04-20T07:16:17.220Z,57.47
2023-04-20T07:18:45.222Z,54.38
2023-04-20T07:21:15.647Z,51.95
2023-04-20T07:23:45.307Z,48.85
2023-04-20T07:26:13.402Z,48.38
2023-04-20T07:28:42.792Z,45.55
2023-04-20T07:31:10.765Z,57.83
2023-04-20T07:33:39.315Z,52.25
2023-04-20T07:36:08.662Z,44.20
2023-04-20T07:38:36.964Z,43.28
2023-04-20T07:41:05.045Z,44.47
2023-04-20T07:43:33.458Z,43.60
2023-04-20T07:46:01.292Z,41.03
2023-04-20T07:48:29.413Z,31.65
2023-04-20T07:50:57.843Z,20.88
2023-04-20T07:53:26.014Z,22.40
2023-04-20T07:55:55.835Z,18.13
2023-04-20T07:58:24.415Z,23.70
2023-04-20T08:00:52.385Z,22.63
2023-04-20T08:03:21.066Z,19.13
2023-04-20T08:05:49.847Z,12.95
2023-04-20T08:08:18.183Z,14.07
2023-04-20T08:10:46.730Z,12.38
2023-04-20T08:13:15.979Z,17.88
2023-04-20T08:15:44.622Z,15.55
2023-04-20T08:18:12.757Z,15.63
2023-04-20T08:20:41.268Z,13.38
2023-04-20T08:23:09.453Z,24.63
2023-04-20T08:25:41.523Z,16.38
2023-04-20T08:28:15.362Z,20.38
2023-04-20T08:30:47.458Z,19.05
2023-04-20T08:33:15.228Z,21.58
2023-04-20T08:35:43.621Z,21.65
2023-04-20T08:38:15.619Z,18.70
2023-04-20T08:40:46.645Z,17.70
2023-04-20T08:43:14.473Z,19.73
2023-04-20T08:45:42.637Z,17.73
2023-04-20T08:48:10.842Z,27.65
2023-04-20T08:50:41.995Z,26.80
2023-04-20T08:53:10.228Z,26.30
2023-04-20T08:55:38.395Z,22.90
2023-04-20T08:58:06.701Z,27.73
2023-04-20T09:00:34.723Z,27.33
2023-04-20T09:03:03.262Z,22.02
2023-04-20T09:05:31.987Z,19.90
2023-04-20T09:08:01.415Z,24.42
2023-04-20T09:11:03.998Z,16.08
2023-04-20T09:13:32.440Z,11.27
2023-04-20T09:16:15.402Z,10.40
2023-04-20T09:18:53.512Z,17.85
2023-04-20T09:21:22.421Z,10.98
2023-04-20T09:24:00.189Z,13.45
2023-04-20T09:26:28.634Z,11.00
2023-04-20T09:28:57.612Z,13.00
2023-04-20T09:31:25.784Z,10.93
2023-04-20T09:34:02.317Z,13.20
2023-04-20T09:36:50.767Z,14.40
2023-04-20T09:39:19.565Z,17.25
2023-04-20T09:41:47.462Z,15.80
2023-04-20T09:44:16.292Z,17.73
2023-04-20T09:46:44.638Z,11.52
2023-04-20T09:49:14.104Z,13.15
2023-04-20T09:51:45.304Z,13.25
2023-04-20T09:56:40.504Z,14.70
2023-04-20T09:59:08.385Z,9.50
2023-04-20T10:01:36.468Z,10.57
2023-04-20T10:04:14.442Z,12.63
2023-04-20T10:06:55.800Z,14.77
2023-04-20T10:09:26.201Z,9.20
2023-04-20T10:11:55.070Z,10.25
2023-04-20T10:14:25.098Z,7.63
2023-04-20T10:17:09.400Z,9.38
2023-04-20T10:19:41.434Z,8.00
2023-04-20T10:22:10.553Z,12.95
2023-04-20T10:24:38.474Z,8.45
2023-04-20T10:27:21.728Z,10.20
2023-04-20T10:29:49.406Z,7.97
2023-04-20T10:32:24.262Z,9.55
2023-04-20T10:35:06.827Z,7.55
2023-04-20T10:37:34.710Z,6.63
2023-04-20T10:40:03.406Z,8.07
2023-04-20T10:42:42.442Z,7.45
2023-04-20T10:45:11.003Z,11.25
2023-04-20T10:47:40.825Z,7.28
2023-04-20T10:50:15.186Z,6.50
2023-04-20T10:52:43.586Z,9.30
2023-04-20T10:55:25.146Z,10.25
2023-04-20T11:00:27.351Z,6.60
2023-04-20T11:02:56.747Z,11.57
2023-04-20T11:05:25.969Z,9.00
2023-04-20T11:07:56.333Z,7.32
2023-04-20T11:10:40.222Z,10.93
2023-04-20T11:13:08.292Z,8.27
2023-04-20T11:15:36.338Z,10.85
2023-04-20T11:18:08.238Z,9.55
2023-04-20T11:20:36.442Z,7.65
2023-04-20T11:23:06.012Z,5.15
2023-04-20T11:25:34.161Z,4.75
2023-04-20T11:28:11.196Z,4.95
2023-04-20T11:30:41.347Z,5.20
2023-04-20T11:33:09.494Z,5.55
2023-04-20T11:35:38.414Z,5.97
2023-04-20T11:38:06.055Z,7.68
2023-04-20T11:40:34.230Z,5.30
2023-04-20T11:43:02.270Z,8.75
2023-04-20T11:45:35.590Z,8.32
2023-04-20T11:48:04.645Z,6.88
2023-04-20T11:50:32.268Z,6.35
2023-04-20T11:52:59.804Z,4.88
2023-04-20T11:55:27.446Z,6.45
2023-04-20T11:57:54.951Z,5.20
2023-04-20T12:00:22.843Z,7.53
2023-04-20T12:02:50.513Z,7.25
2023-04-20T12:05:18.225Z,6.50
2023-04-20T12:07:46.186Z,5.82
2023-04-20T12:10:13.909Z,9.43
2023-04-20T12:12:42.308Z,8.65
2023-04-20T12:15:10.205Z,5.47
2023-04-20T12:17:38.075Z,9.43
2023-04-20T12:20:09.461Z,6.95
2023-04-20T12:22:37.307Z,8.43
2023-04-20T12:25:06.261Z,9.18
2023-04-20T12:27:34.088Z,9.88
2023-04-20T12:30:01.647Z,9.02
2023-04-20T12:32:29.239Z,9.82
2023-04-20T12:34:56.682Z,8.52
2023-04-20T12:37:24.163Z,11.10
2023-04-20T12:39:51.626Z,8.73
2023-04-20T12:42:19.469Z,13.07
2023-04-20T12:44:46.957Z,13.07
2023-04-20T12:47:14.430Z,9.73
2023-04-20T12:49:42.009Z,8.18
2023-04-20T12:52:10.012Z,13.13
2023-04-20T12:54:37.473Z,9.40
2023-04-20T12:57:05.061Z,10.65
2023-04-20T12:59:32.536Z,9.63
2023-04-20T13:02:00.132Z,10.82
2023-04-20T13:04:27.930Z,10.13
2023-04-20T13:06:55.900Z,9.68
2023-04-20T13:09:27.101Z,11.25
2023-04-20T13:11:54.714Z,10.75
2023-04-20T13:14:22.206Z,9.80
2023-04-20T13:16:49.806Z,9.48
2023-04-20T13:19:17.370Z,10.43
2023-04-20T13:21:44.916Z,9.02
2023-04-20T13:24:12.526Z,7.72
2023-04-20T13:26:40.118Z,9.82
2023-04-20T13:29:07.582Z,9.43
2023-04-20T13:31:35.252Z,8.80
2023-04-20T13:34:02.746Z,7.32
2023-04-20T13:36:30.388Z,6.85
2023-04-20T13:38:58.046Z,11.77
2023-04-20T13:41:25.861Z,7.43
2023-04-20T13:43:53.584Z,9.45
2023-04-20T13:46:21.252Z,6.38
2023-04-20T13:48:48.913Z,10.85
2023-04-20T13:51:16.463Z,8.75
2023-04-20T13:53:44.108Z,9.20
2023-04-20T13:56:11.666Z,6.45
2023-04-20T13:58:39.276Z,8.25
2023-04-20T14:01:15.621Z,8.50
2023-04-20T14:03:44.500Z,8.25
2023-04-20T14:06:12.234Z,6.70
2023-04-20T14:08:42.135Z,8.60
2023-04-20T14:11:10.021Z,10.07
2023-04-20T14:13:38.260Z,7.80
2023-04-20T14:16:10.138Z,9.57
2023-04-20T14:18:38.075Z,7.30
2023-04-20T14:21:05.812Z,8.52
2023-04-20T14:23:33.443Z,9.73
2023-04-20T14:26:01.209Z,9.35
2023-04-20T14:28:31.204Z,10.85
2023-04-20T14:31:00.882Z,12.77
2023-04-20T14:33:28.946Z,10.15
2023-04-20T14:35:56.518Z,11.88
2023-04-20T14:38:24.906Z,7.70
2023-04-20T14:40:52.689Z,8.68
2023-04-20T14:43:20.250Z,17.42
2023-04-20T14:45:47.797Z,13.68
2023-04-20T15:00:20.678Z,11.18
2023-04-20T15:02:48.313Z,12.10
2023-04-20T15:05:16.137Z,11.45
2023-04-20T15:07:45.985Z,14.60
2023-04-20T15:10:13.400Z,10.70
2023-04-20T15:12:40.949Z,12.38
2023-04-20T15:15:08.792Z,10.93
2023-04-20T15:17:37.074Z,13.27
2023-04-20T15:20:05.059Z,13.35
2023-04-20T15:22:32.916Z,14.85
2023-04-20T15:25:00.508Z,13.60
2023-04-20T15:27:28.012Z,17.25
2023-04-20T15:29:58.111Z,15.77
2023-04-20T15:32:26.395Z,22.33
2023-04-20T15:34:53.944Z,19.95
2023-04-20T15:37:21.656Z,20.15
2023-04-20T15:39:49.141Z,18.80
2023-04-20T15:42:16.720Z,22.15
2023-04-20T15:44:44.356Z,23.08
2023-04-20T15:47:11.953Z,24.08
2023-04-20T15:49:40.782Z,25.27
2023-04-20T15:52:09.097Z,22.23
2023-04-20T15:54:37.516Z,19.92
2023-04-20T15:57:05.470Z,27.02
2023-04-20T15:59:33.209Z,28.10
2023-04-20T16:02:00.895Z,25.80
2023-04-20T16:04:28.570Z,27.70
2023-04-20T16:06:56.307Z,26.48
2023-04-20T16:09:24.182Z,30.17
2023-04-20T16:11:51.610Z,30.77
2023-04-20T16:14:19.264Z,28.02
2023-04-20T16:16:46.969Z,35.00
2023-04-20T16:19:14.757Z,32.33
2023-04-20T16:21:42.266Z,34.38
2023-04-20T16:24:09.737Z,121.18
2023-04-20T16:26:37.719Z,48.42
2023-04-20T16:29:06.056Z,39.58
2023-04-20T16:31:33.573Z,58.20
2023-04-20T16:34:01.180Z,38.58
2023-04-20T16:36:28.737Z,36.65
2023-04-20T16:38:57.087Z,35.40
2023-04-20T16:41:25.872Z,38.30
2023-04-20T16:43:53.510Z,20.73
2023-04-20T16:46:22.383Z,18.50
2023-04-20T16:48:51.033Z,22.05
2023-04-20T16:51:18.607Z,23.42
2023-04-20T16:53:46.520Z,24.70
2023-04-20T16:56:14.608Z,24.48
2023-04-20T16:58:42.239Z,25.50
2023-04-20T17:01:10.281Z,24.73
2023-04-20T17:03:38.058Z,21.23
2023-04-20T17:06:08.432Z,27.05
2023-04-20T17:08:39.661Z,21.02
2023-04-20T17:11:07.210Z,29.55
2023-04-20T17:13:35.087Z,25.50
2023-04-20T17:16:02.898Z,30.65
2023-04-20T17:18:30.843Z,27.23
2023-04-20T17:20:58.461Z,31.55
2023-04-20T17:23:26.569Z,35.65
2023-04-20T17:25:54.812Z,32.70
2023-04-20T17:28:22.404Z,36.00
2023-04-20T17:30:50.129Z,34.95
2023-04-20T17:33:18.042Z,30.58
2023-04-20T17:35:46.597Z,29.02
2023-04-20T17:38:14.215Z,40.33
2023-04-20T17:40:41.721Z,40.60
2023-04-20T17:43:09.102Z,40.45
2023-04-20T17:45:36.958Z,33.30
2023-04-20T17:48:05.012Z,44.08
2023-04-20T17:50:33.912Z,57.80
2023-04-20T17:53:07.129Z,52.60
2023-04-20T17:55:35.500Z,48.88
2023-04-20T17:58:03.083Z,51.40
2023-04-20T18:00:30.716Z,54.60
2023-04-20T18:02:59.203Z,52.63
2023-04-20T18:05:27.303Z,59.92
2023-04-20T18:07:54.833Z,55.15
2023-04-20T18:10:23.145Z,61.40
2023-04-20T18:12:50.646Z,53.92
2023-04-20T18:15:18.161Z,69.28
2023-04-20T18:17:45.945Z,76.15
2023-04-20T18:20:13.511Z,59.60
2023-04-20T18:22:42.017Z,71.72
2023-04-20T18:25:09.814Z,61.80
2023-04-20T18:27:37.716Z,58.25
2023-04-20T18:30:06.094Z,72.30
2023-04-20T18:32:36.363Z,68.50
2023-04-20T18:35:05.112Z,63.22
2023-04-20T18:37:32.668Z,53.50
2023-04-20T18:40:00.278Z,63.22
2023-04-20T18:42:27.743Z,50.00
2023-04-20T18:44:56.070Z,63.80
2023-04-20T18:47:25.532Z,51.80
2023-04-20T18:49:53.600Z,66.97
2023-04-20T18:52:22.062Z,48.10
2023-04-20T18:54:49.531Z,68.18
2023-04-20T18:57:17.103Z,58.05
2023-04-20T18:59:44.943Z,48.70
2023-04-20T19:02:13.635Z,45.67
2023-04-20T19:04:41.283Z,52.47
2023-04-20T19:07:08.792Z,45.55
2023-04-20T19:09:36.270Z,52.30
2023-04-20T19:12:03.912Z,43.90
2023-04-20T19:14:31.862Z,42.38
2023-04-20T19:16:59.446Z,46.00
2023-04-20T19:19:27.002Z,40.75
2023-04-20T19:21:54.638Z,44.92
2023-04-20T19:24:22.179Z,47.80
2023-04-20T19:26:49.588Z,36.28
2023-04-20T19:29:17.426Z,42.67
2023-04-20T19:31:45.178Z,40.60
2023-04-20T19:34:14.978Z,39.22
2023-04-20T19:36:42.676Z,40.25
2023-04-20T19:39:12.389Z,40.78
2023-04-20T19:41:40.144Z,45.70
2023-04-20T19:44:10.077Z,41.50
2023-04-20T19:46:39.094Z,31.90
2023-04-20T19:49:07.121Z,36.05
2023-04-20T19:51:35.090Z,31.95
2023-04-20T19:54:04.546Z,39.92
2023-04-20T19:56:32.536Z,29.83
2023-04-20T19:59:00.308Z,31.40
2023-04-20T20:01:30.205Z,33.65
2023-04-20T20:03:58.994Z,37.35
2023-04-20T20:06:27.396Z,43.83
2023-04-20T20:08:55.168Z,35.75
2023-04-20T20:11:24.303Z,43.05
2023-04-20T20:13:53.114Z,30.80
2023-04-20T20:16:21.196Z,34.38
2023-04-20T20:18:49.026Z,36.47
2023-04-20T20:21:17.206Z,34.08
2023-04-20T20:23:45.063Z,31.25
2023-04-20T20:26:13.337Z,33.47
2023-04-20T20:28:41.668Z,40.00
2023-04-20T20:31:11.294Z,30.88
2023-04-20T20:33:39.931Z,34.25
2023-04-20T20:36:08.092Z,32.28
2023-04-20T20:38:36.564Z,31.25
2023-04-20T20:41:04.509Z,32.13
2023-04-20T20:43:32.319Z,35.33
2023-04-20T20:46:00.702Z,29.77
2023-04-20T20:48:29.348Z,33.25
2023-04-20T20:50:57.362Z,27.20
2023-04-20T20:53:25.065Z,33.53
2023-04-20T20:55:54.415Z,42.80
2023-04-20T20:58:22.714Z,29.58
2023-04-20T21:00:52.641Z,32.60
2023-04-20T21:03:20.651Z,23.00
2023-04-20T21:05:49.439Z,25.30
2023-04-20T21:08:18.416Z,26.20
2023-04-20T21:10:46.089Z,27.27
2023-04-20T21:13:14.203Z,40.13
2023-04-20T21:15:45.091Z,31.27
2023-04-20T21:18:13.138Z,19.98
2023-04-20T21:20:40.903Z,31.00
2023-04-20T21:23:08.824Z,36.53
2023-04-20T21:25:37.044Z,30.88
2023-04-20T21:28:04.992Z,32.67
2023-04-20T21:30:32.938Z,24.63
2023-04-20T21:33:00.965Z,28.88
2023-04-20T21:35:29.179Z,30.75
2023-04-20T21:37:56.976Z,30.25
2023-04-20T21:40:25.620Z,25.10
2023-04-20T21:42:53.857Z,34.75
2023-04-20T21:45:21.600Z,30.77
2023-04-20T21:47:49.516Z,30.20
2023-04-20T21:50:17.332Z,28.45
2023-04-20T21:52:45.080Z,27.23
2023-04-20T21:55:13.453Z,29.88
2023-04-20T21:57:41.358Z,24.60
2023-04-20T22:00:11.614Z,22.25
2023-04-20T22:02:46.411Z,28.77
2023-04-20T22:05:14.790Z,31.48
2023-04-20T22:07:46.098Z,37.30
2023-04-20T22:10:15.502Z,29.15
2023-04-20T22:12:43.588Z,32.10
2023-04-20T22:15:15.458Z,33.47
2023-04-20T22:17:48.289Z,25.55
2023-04-20T22:20:17.030Z,27.90
2023-04-20T22:22:45.022Z,27.42
2023-04-20T22:25:12.803Z,31.83
2023-04-20T22:27:41.244Z,28.67
2023-04-20T22:30:10.248Z,36.70
2023-04-20T22:32:39.257Z,27.05
2023-04-20T22:35:08.199Z,24.05
2023-04-20T22:37:36.865Z,30.48
2023-04-20T22:40:06.300Z,28.27
2023-04-20T22:42:37.688Z,27.75
2023-04-20T22:45:07.008Z,22.50
2023-04-20T22:47:35.687Z,26.25
2023-04-20T22:50:06.757Z,25.17
2023-04-20T22:52:37.552Z,29.77
2023-04-20T22:55:10.590Z,25.52
2023-04-20T22:57:44.684Z,26.67
2023-04-20T23:00:15.110Z,28.42
2023-04-20T23:02:43.785Z,25.52
2023-04-20T23:05:12.642Z,38.15
2023-04-20T23:07:42.044Z,23.90
2023-04-20T23:10:11.166Z,29.75
2023-04-20T23:12:39.080Z,39.50
2023-04-20T23:15:07.303Z,30.13
2023-04-20T23:17:35.841Z,30.27
2023-04-20T23:20:03.932Z,21.35
2023-04-20T23:22:32.696Z,25.05
2023-04-20T23:25:00.502Z,28.88
2023-04-20T23:27:28.427Z,23.42
2023-04-20T23:29:56.631Z,25.77
2023-04-20T23:32:25.016Z,31.60
2023-04-20T23:34:53.239Z,28.25
2023-04-20T23:37:21.348Z,30.35
2023-04-20T23:39:49.022Z,29.95
2023-04-20T23:42:17.120Z,27.80
2023-04-20T23:44:44.980Z,28.92
2023-04-20T23:47:13.163Z,26.83
2023-04-20T23:49:41.119Z,28.95
2023-04-20T23:52:08.940Z,31.88
2023-04-20T23:54:37.106Z,43.25
2023-04-20T23:57:05.535Z,34.83
2023-04-20T23:59:37.561Z,30.13
